createdAt,value
2019-05-19T00:01:52.258Z,96.40
2019-05-19T00:04:22.503Z,96.50
2019-05-19T00:06:52.703Z,96.60
2019-05-19T00:09:22.894Z,96.90
2019-05-19T00:11:53.118Z,97.10
2019-05-19T00:14:23.378Z,97.30
2019-05-19T00:16:53.591Z,97.40
2019-05-19T00:19:26.789Z,97.60
2019-05-19T00:21:55.729Z,97.80
2019-05-19T00:24:25.960Z,98.00
2019-05-19T00:26:56.335Z,98.20
2019-05-19T00:29:26.544Z,98.50
2019-05-19T00:31:56.761Z,98.70
2019-05-19T00:34:26.974Z,98.80
2019-05-19T00:36:57.202Z,98.90
2019-05-19T00:39:27.418Z,99.00
2019-05-19T00:41:57.628Z,99.40
2019-05-19T00:44:27.853Z,99.80
2019-05-19T00:46:58.091Z,99.90
2019-05-19T00:49:40.656Z,99.90
2019-05-19T00:52:00.299Z,99.90
2019-05-19T00:54:30.517Z,99.90
2019-05-19T00:57:02.941Z,99.90
2019-05-19T00:59:34.296Z,99.90
2019-05-19T01:02:04.766Z,99.90
2019-05-19T01:04:34.981Z,99.90
2019-05-19T01:07:05.301Z,99.90
2019-05-19T01:09:38.417Z,99.90
2019-05-19T01:12:08.679Z,99.90
2019-05-19T01:14:39.143Z,99.90
2019-05-19T01:17:09.393Z,99.90
2019-05-19T01:19:40.175Z,99.90
2019-05-19T01:22:10.725Z,99.90
2019-05-19T01:24:40.955Z,99.90
2019-05-19T01:27:11.163Z,99.90
2019-05-19T01:29:41.463Z,99.90
2019-05-19T01:32:11.958Z,99.90
2019-05-19T01:34:42.183Z,99.90
2019-05-19T01:37:12.372Z,99.90
2019-05-19T01:39:43.068Z,99.90
2019-05-19T01:42:13.266Z,99.90
2019-05-19T01:44:43.510Z,99.90
2019-05-19T01:47:13.717Z,99.90
2019-05-19T01:49:43.981Z,99.90
2019-05-19T01:52:14.179Z,99.90
2019-05-19T01:54:44.595Z,99.90
2019-05-19T01:57:14.795Z,99.90
2019-05-19T01:59:45.022Z,99.90
2019-05-19T02:02:15.275Z,99.90
2019-05-19T02:04:45.518Z,99.90
2019-05-19T02:07:15.729Z,99.90
2019-05-19T02:09:46.047Z,99.90
2019-05-19T02:12:16.267Z,99.90
2019-05-19T02:14:46.469Z,99.90
2019-05-19T02:17:16.697Z,99.90
2019-05-19T02:19:49.329Z,99.90
2019-05-19T02:22:20.537Z,99.90
2019-05-19T02:24:50.739Z,99.90
2019-05-19T02:27:20.933Z,99.90
2019-05-19T02:29:51.132Z,99.90
2019-05-19T02:32:21.374Z,99.90
2019-05-19T02:34:51.608Z,99.90
2019-05-19T02:37:21.822Z,99.90
2019-05-19T02:39:52.102Z,99.90
2019-05-19T02:42:22.944Z,99.90
2019-05-19T02:44:54.411Z,99.90
2019-05-19T02:47:26.275Z,99.90
2019-05-19T02:49:57.825Z,99.90
2019-05-19T02:52:28.859Z,99.90
2019-05-19T02:55:01.745Z,99.90
2019-05-19T02:57:33.761Z,99.90
2019-05-19T03:00:08.302Z,99.90
2019-05-19T03:02:38.501Z,99.90
2019-05-19T03:05:08.808Z,99.90
2019-05-19T03:07:39.010Z,99.90
2019-05-19T03:10:09.475Z,99.90
2019-05-19T03:12:39.696Z,99.90
2019-05-19T03:15:10.158Z,99.90
2019-05-19T03:17:40.354Z,99.90
2019-05-19T03:20:10.907Z,99.90
2019-05-19T03:22:41.125Z,99.90
2019-05-19T03:25:11.572Z,99.90
2019-05-19T03:27:41.773Z,99.90
2019-05-19T03:30:32.830Z,99.90
2019-05-19T03:33:04.685Z,99.90
2019-05-19T03:35:34.898Z,99.90
2019-05-19T03:38:05.263Z,99.90
2019-05-19T03:40:35.572Z,99.90
2019-05-19T03:43:05.785Z,99.90
2019-05-19T03:45:36.034Z,99.90
2019-05-19T03:48:06.491Z,99.90
2019-05-19T03:50:36.703Z,99.90
2019-05-19T03:53:06.924Z,99.90
2019-05-19T03:55:37.619Z,99.90
2019-05-19T03:58:07.821Z,99.90
2019-05-19T04:00:38.045Z,99.90
2019-05-19T04:03:08.273Z,99.90
2019-05-19T04:05:38.508Z,99.90
2019-05-19T04:08:08.710Z,99.90
2019-05-19T04:10:38.933Z,99.90
2019-05-19T04:13:09.144Z,99.90
2019-05-19T04:15:39.412Z,99.90
2019-05-19T04:18:09.663Z,99.90
2019-05-19T04:20:39.869Z,99.90
2019-05-19T04:23:10.068Z,99.90
2019-05-19T04:25:40.280Z,99.90
2019-05-19T04:28:10.502Z,99.90
2019-05-19T04:30:40.710Z,99.90
2019-05-19T04:33:10.982Z,99.90
2019-05-19T04:35:41.276Z,99.90
2019-05-19T04:38:11.524Z,99.90
2019-05-19T04:40:43.065Z,99.90
2019-05-19T04:43:13.287Z,99.90
2019-05-19T04:45:43.510Z,99.90
2019-05-19T04:48:13.724Z,99.90
2019-05-19T04:50:43.932Z,99.90
2019-05-19T04:53:14.160Z,99.90
2019-05-19T04:55:44.365Z,99.90
2019-05-19T04:58:14.641Z,99.90
2019-05-19T05:00:44.854Z,99.90
2019-05-19T05:03:15.080Z,99.90
2019-05-19T05:05:45.304Z,99.90
2019-05-19T05:08:28.761Z,99.90
2019-05-19T05:10:47.421Z,99.90
2019-05-19T05:13:17.627Z,99.90
2019-05-19T05:15:48.233Z,99.90
2019-05-19T05:18:18.422Z,99.90
2019-05-19T05:20:48.619Z,99.90
2019-05-19T05:23:18.839Z,99.90
2019-05-19T05:25:49.116Z,99.90
2019-05-19T05:28:19.347Z,99.90
2019-05-19T05:30:49.559Z,99.90
2019-05-19T05:33:20.760Z,99.90
2019-05-19T05:35:50.969Z,99.90
2019-05-19T05:38:21.207Z,99.90
2019-05-19T05:40:51.405Z,99.90
2019-05-19T05:43:21.697Z,99.90
2019-05-19T05:45:51.920Z,99.90
2019-05-19T05:48:22.225Z,99.90
2019-05-19T05:50:52.414Z,99.90
2019-05-19T05:53:22.645Z,99.90
2019-05-19T05:55:52.843Z,99.90
2019-05-19T05:58:23.070Z,99.90
2019-05-19T06:00:53.268Z,99.90
2019-05-19T06:03:23.475Z,99.90
2019-05-19T06:05:53.749Z,99.90
2019-05-19T06:08:23.948Z,99.90
2019-05-19T06:10:54.143Z,99.90
2019-05-19T06:13:24.361Z,99.90
2019-05-19T06:15:54.548Z,99.90
2019-05-19T06:18:24.758Z,99.90
2019-05-19T06:20:55.001Z,99.90
2019-05-19T06:23:25.192Z,99.90
2019-05-19T06:25:55.405Z,99.90
2019-05-19T06:28:25.612Z,99.90
2019-05-19T06:30:55.835Z,99.90
2019-05-19T06:33:26.056Z,99.90
2019-05-19T06:35:56.258Z,99.90
2019-05-19T06:38:26.467Z,99.90
2019-05-19T06:40:56.668Z,99.90
2019-05-19T06:43:26.891Z,99.90
2019-05-19T06:45:57.109Z,99.90
2019-05-19T06:48:27.332Z,99.90
2019-05-19T06:50:57.527Z,99.90
2019-05-19T06:53:27.749Z,99.90
2019-05-19T06:55:57.989Z,99.90
2019-05-19T06:58:28.199Z,99.90
2019-05-19T07:00:59.251Z,99.90
2019-05-19T07:03:29.591Z,99.90
2019-05-19T07:05:59.788Z,99.90
2019-05-19T07:08:30.032Z,99.90
2019-05-19T07:11:00.225Z,99.90
2019-05-19T07:13:30.460Z,99.90
2019-05-19T07:16:00.664Z,99.90
2019-05-19T07:18:30.905Z,99.90
2019-05-19T07:21:01.124Z,99.90
2019-05-19T07:23:31.367Z,99.90
2019-05-19T07:26:01.581Z,99.90
2019-05-19T07:28:31.863Z,99.90
2019-05-19T07:31:02.405Z,99.90
2019-05-19T07:33:32.775Z,99.90
2019-05-19T07:36:02.992Z,99.90
2019-05-19T07:38:33.215Z,99.90
2019-05-19T07:41:03.605Z,99.90
2019-05-19T07:43:33.751Z,99.90
2019-05-19T07:46:04.116Z,99.80
2019-05-19T07:48:34.327Z,99.30
2019-05-19T07:51:04.567Z,98.80
2019-05-19T07:53:42.526Z,98.30
2019-05-19T07:56:06.796Z,98.10
2019-05-19T07:58:37.093Z,98.00
2019-05-19T08:01:07.298Z,97.60
2019-05-19T08:03:37.532Z,97.10
2019-05-19T08:06:07.822Z,96.60
2019-05-19T08:08:38.117Z,96.30
2019-05-19T08:11:08.404Z,96.40
2019-05-19T08:13:38.655Z,95.70
2019-05-19T08:16:08.865Z,95.80
2019-05-19T08:18:39.080Z,95.00
2019-05-19T08:21:09.309Z,94.90
2019-05-19T08:23:39.554Z,94.90
2019-05-19T08:26:09.788Z,94.80
2019-05-19T08:28:39.991Z,94.20
2019-05-19T08:31:10.210Z,94.10
2019-05-19T08:33:40.473Z,93.50
2019-05-19T08:36:10.703Z,92.50
2019-05-19T08:38:40.919Z,91.60
2019-05-19T08:41:11.185Z,90.90
2019-05-19T08:43:41.433Z,89.20
2019-05-19T08:46:11.658Z,89.30
2019-05-19T08:48:41.892Z,89.40
2019-05-19T08:51:12.100Z,89.10
2019-05-19T08:53:42.339Z,87.50
2019-05-19T08:56:12.570Z,86.00
2019-05-19T08:58:42.802Z,82.20
2019-05-19T09:01:13.029Z,79.20
2019-05-19T09:03:43.247Z,78.00
2019-05-19T09:06:13.454Z,77.50
2019-05-19T09:08:43.636Z,76.80
2019-05-19T09:11:13.882Z,75.80
2019-05-19T09:13:44.228Z,74.50
2019-05-19T09:16:14.450Z,71.50
2019-05-19T09:18:44.659Z,69.10
2019-05-19T09:21:14.865Z,69.10
2019-05-19T09:23:45.166Z,68.70
2019-05-19T09:26:15.380Z,69.30
2019-05-19T09:28:45.611Z,69.10
2019-05-19T09:31:15.914Z,67.70
2019-05-19T09:33:46.211Z,65.60
2019-05-19T09:36:16.430Z,64.80
2019-05-19T09:38:46.754Z,65.50
2019-05-19T09:41:16.977Z,64.60
2019-05-19T09:43:47.178Z,65.00
2019-05-19T09:46:17.400Z,64.00
2019-05-19T09:48:49.262Z,64.00
2019-05-19T09:51:19.482Z,64.30
2019-05-19T09:53:49.786Z,65.00
2019-05-19T09:56:21.021Z,64.70
2019-05-19T09:58:51.217Z,64.50
2019-05-19T10:01:21.437Z,63.50
2019-05-19T10:03:51.669Z,63.10
2019-05-19T10:06:21.913Z,62.90
2019-05-19T10:08:55.088Z,62.30
2019-05-19T10:12:04.320Z,62.20
2019-05-19T10:14:34.584Z,61.30
2019-05-19T10:17:04.880Z,59.60
2019-05-19T10:19:35.088Z,59.60
2019-05-19T10:22:05.655Z,59.90
2019-05-19T10:24:35.840Z,60.40
2019-05-19T10:27:06.306Z,60.00
2019-05-19T10:29:36.647Z,60.00
2019-05-19T10:32:07.013Z,60.40
2019-05-19T10:34:38.258Z,60.10
2019-05-19T10:37:08.465Z,59.30
2019-05-19T10:39:39.535Z,60.00
2019-05-19T10:42:09.850Z,61.40
2019-05-19T10:44:40.057Z,61.80
2019-05-19T10:47:10.298Z,57.70
2019-05-19T10:49:42.984Z,57.60
2019-05-19T10:52:12.413Z,58.10
2019-05-19T10:54:42.611Z,58.10
2019-05-19T10:57:12.860Z,57.90
2019-05-19T10:59:43.077Z,57.40
2019-05-19T11:02:14.945Z,56.20
2019-05-19T11:04:45.137Z,56.20
2019-05-19T11:07:15.375Z,56.10
2019-05-19T11:09:45.621Z,55.70
2019-05-19T11:12:29.167Z,55.40
2019-05-19T11:14:59.385Z,55.10
2019-05-19T11:17:29.679Z,54.90
2019-05-19T11:19:59.924Z,54.80
2019-05-19T11:22:30.205Z,54.90
2019-05-19T11:25:00.471Z,53.90
2019-05-19T11:27:30.704Z,53.90
2019-05-19T11:30:00.941Z,54.50
2019-05-19T11:32:31.138Z,54.30
2019-05-19T11:35:01.345Z,52.60
2019-05-19T11:37:31.597Z,52.40
2019-05-19T11:40:01.875Z,52.30
2019-05-19T11:42:32.089Z,51.80
2019-05-19T11:45:02.307Z,51.10
2019-05-19T11:47:32.551Z,51.40
2019-05-19T11:50:02.842Z,51.00
2019-05-19T11:52:33.047Z,51.40
2019-05-19T11:55:03.834Z,51.70
2019-05-19T11:57:34.055Z,52.10
2019-05-19T12:00:06.659Z,52.70
2019-05-19T12:02:36.872Z,52.80
2019-05-19T12:05:07.165Z,53.10
2019-05-19T12:07:37.381Z,54.70
2019-05-19T12:10:08.509Z,57.10
2019-05-19T12:12:38.759Z,59.00
2019-05-19T12:15:10.452Z,60.40
2019-05-19T12:17:40.702Z,61.20
2019-05-19T12:20:11.146Z,61.90
2019-05-19T12:22:41.390Z,62.20
2019-05-19T12:25:11.747Z,62.40
2019-05-19T12:27:42.088Z,62.00
2019-05-19T12:30:17.011Z,61.80
2019-05-19T12:32:47.339Z,57.80
2019-05-19T12:35:18.031Z,56.40
2019-05-19T12:37:48.277Z,55.10
2019-05-19T12:40:22.309Z,54.50
2019-05-19T12:42:50.617Z,54.20
2019-05-19T12:45:21.639Z,52.30
2019-05-19T12:47:52.549Z,51.80
2019-05-19T12:50:22.917Z,51.20
2019-05-19T12:52:53.148Z,50.70
2019-05-19T12:55:23.355Z,51.30
2019-05-19T12:57:53.559Z,51.10
2019-05-19T13:00:23.936Z,50.80
2019-05-19T13:02:54.152Z,49.50
2019-05-19T13:05:24.457Z,48.40
2019-05-19T13:07:54.691Z,47.50
2019-05-19T13:10:24.913Z,46.00
2019-05-19T13:12:55.217Z,45.00
2019-05-19T13:15:25.483Z,44.10
2019-05-19T13:17:55.717Z,44.00
2019-05-19T13:20:25.915Z,43.80
2019-05-19T13:22:56.235Z,43.30
2019-05-19T13:25:26.478Z,43.60
2019-05-19T13:27:56.750Z,43.20
2019-05-19T13:30:27.162Z,42.90
2019-05-19T13:32:58.070Z,42.70
2019-05-19T13:35:28.300Z,42.50
2019-05-19T13:37:58.607Z,42.40
2019-05-19T13:40:28.838Z,43.00
2019-05-19T13:42:59.080Z,43.10
2019-05-19T13:45:29.284Z,42.80
2019-05-19T13:47:59.524Z,42.20
2019-05-19T13:50:29.741Z,41.70
2019-05-19T13:52:59.994Z,42.10
2019-05-19T13:55:30.215Z,46.30
2019-05-19T13:58:03.441Z,49.30
2019-05-19T14:00:32.498Z,50.30
2019-05-19T14:03:02.794Z,51.50
2019-05-19T14:05:33.039Z,51.30
2019-05-19T14:08:03.286Z,47.30
2019-05-19T14:10:33.504Z,46.80
2019-05-19T14:13:03.751Z,47.30
2019-05-19T14:15:34.040Z,47.80
2019-05-19T14:18:04.514Z,47.30
2019-05-19T14:20:34.755Z,46.70
2019-05-19T14:23:04.945Z,45.20
2019-05-19T14:25:35.191Z,45.10
2019-05-19T14:28:05.468Z,44.90
2019-05-19T14:30:35.772Z,44.00
2019-05-19T14:33:06.048Z,44.00
2019-05-19T14:35:36.264Z,44.40
2019-05-19T14:38:06.469Z,43.00
2019-05-19T14:40:36.730Z,42.00
2019-05-19T14:43:07.003Z,41.70
2019-05-19T14:45:37.246Z,42.30
2019-05-19T14:48:07.502Z,42.80
2019-05-19T14:50:37.746Z,42.80
2019-05-19T14:53:07.978Z,39.20
2019-05-19T14:55:38.331Z,35.90
2019-05-19T14:58:08.607Z,33.60
2019-05-19T15:00:38.835Z,30.00
2019-05-19T15:03:09.064Z,27.90
2019-05-19T15:05:39.284Z,24.70
2019-05-19T15:08:09.553Z,21.70
2019-05-19T15:10:39.762Z,20.60
2019-05-19T15:13:10.027Z,20.10
2019-05-19T15:15:40.202Z,20.60
2019-05-19T15:18:10.433Z,21.00
2019-05-19T15:20:40.650Z,21.80
2019-05-19T15:23:10.867Z,21.50
2019-05-19T15:25:41.261Z,20.30
2019-05-19T15:28:11.483Z,18.40
2019-05-19T15:30:41.691Z,19.00
2019-05-19T15:33:11.966Z,21.00
2019-05-19T15:35:42.192Z,22.10
2019-05-19T15:38:12.419Z,24.50
2019-05-19T15:40:42.626Z,27.30
2019-05-19T15:43:12.835Z,26.50
2019-05-19T15:45:43.034Z,24.80
2019-05-19T15:48:13.243Z,22.90
2019-05-19T15:50:43.493Z,22.10
2019-05-19T15:53:13.693Z,23.90
2019-05-19T15:55:43.955Z,25.60
2019-05-19T15:58:16.885Z,26.70
2019-05-19T16:00:46.144Z,27.80
2019-05-19T16:03:16.339Z,29.00
2019-05-19T16:05:46.575Z,28.40
2019-05-19T16:08:16.795Z,29.20
2019-05-19T16:10:47.003Z,29.70
2019-05-19T16:13:17.244Z,30.20
2019-05-19T16:15:47.443Z,30.80
2019-05-19T16:18:17.641Z,31.70
2019-05-19T16:20:47.860Z,31.40
2019-05-19T16:23:18.106Z,30.80
2019-05-19T16:25:48.337Z,31.30
2019-05-19T16:28:29.927Z,32.50
2019-05-19T16:30:50.472Z,34.10
2019-05-19T16:33:21.533Z,35.30
2019-05-19T16:35:51.769Z,35.80
2019-05-19T16:38:21.965Z,36.40
2019-05-19T16:40:52.211Z,37.00
2019-05-19T16:43:22.431Z,37.90
2019-05-19T16:45:52.657Z,38.70
2019-05-19T16:48:23.453Z,38.90
2019-05-19T16:50:53.812Z,39.80
2019-05-19T16:53:24.010Z,39.60
2019-05-19T16:55:54.241Z,39.60
2019-05-19T16:58:24.458Z,41.70
2019-05-19T17:00:54.682Z,44.30
2019-05-19T17:03:24.879Z,45.80
2019-05-19T17:05:55.118Z,47.00
2019-05-19T17:08:25.295Z,46.60
2019-05-19T17:10:55.514Z,46.40
2019-05-19T17:13:25.731Z,46.50
2019-05-19T17:15:55.931Z,46.40
2019-05-19T17:18:26.137Z,44.70
2019-05-19T17:20:56.342Z,45.40
2019-05-19T17:23:26.578Z,44.00
2019-05-19T17:25:56.816Z,44.10
2019-05-19T17:28:27.350Z,44.00
2019-05-19T17:30:57.579Z,43.60
2019-05-19T17:33:27.850Z,44.20
2019-05-19T17:35:58.066Z,45.20
2019-05-19T17:38:28.279Z,46.00
2019-05-19T17:40:58.490Z,46.60
2019-05-19T17:43:28.738Z,47.40
2019-05-19T17:45:59.020Z,46.70
2019-05-19T17:48:29.237Z,46.10
2019-05-19T17:50:59.453Z,45.50
2019-05-19T17:53:29.763Z,46.60
2019-05-19T17:56:00.497Z,46.90
2019-05-19T17:58:32.070Z,47.60
2019-05-19T18:01:02.291Z,48.40
2019-05-19T18:03:33.129Z,48.10
2019-05-19T18:06:03.326Z,47.80
2019-05-19T18:08:33.609Z,48.30
2019-05-19T18:11:03.802Z,47.50
2019-05-19T18:13:34.078Z,48.20
2019-05-19T18:16:04.488Z,49.10
2019-05-19T18:18:34.728Z,49.30
2019-05-19T18:21:05.097Z,49.70
2019-05-19T18:23:35.332Z,50.80
2019-05-19T18:26:07.308Z,51.20
2019-05-19T18:28:37.576Z,52.00
2019-05-19T18:31:07.774Z,52.50
2019-05-19T18:33:37.993Z,52.90
2019-05-19T18:36:08.238Z,53.90
2019-05-19T18:38:38.485Z,54.70
2019-05-19T18:41:08.713Z,56.30
2019-05-19T18:43:38.948Z,62.40
2019-05-19T18:46:09.153Z,74.10
2019-05-19T18:48:39.437Z,91.50
2019-05-19T18:51:09.634Z,96.70
2019-05-19T18:53:39.888Z,97.70
2019-05-19T18:56:10.132Z,99.90
2019-05-19T18:58:40.479Z,99.90
2019-05-19T19:01:10.797Z,99.90
2019-05-19T19:03:41.193Z,99.90
2019-05-19T19:06:11.670Z,99.90
2019-05-19T19:08:41.899Z,99.90
2019-05-19T19:11:12.144Z,99.90
2019-05-19T19:13:42.858Z,99.90
2019-05-19T19:16:13.127Z,99.90
2019-05-19T19:18:43.326Z,99.90
2019-05-19T19:21:13.574Z,99.90
2019-05-19T19:23:43.844Z,99.90
2019-05-19T19:26:14.199Z,99.90
2019-05-19T19:28:44.416Z,99.90
2019-05-19T19:31:14.676Z,99.90
2019-05-19T19:33:44.917Z,99.90
2019-05-19T19:36:15.200Z,99.90
2019-05-19T19:38:45.484Z,99.90
2019-05-19T19:41:15.714Z,99.90
2019-05-19T19:43:45.929Z,99.90
2019-05-19T19:46:16.267Z,99.90
2019-05-19T19:48:46.503Z,99.90
2019-05-19T19:51:16.774Z,99.90
2019-05-19T19:53:46.969Z,99.90
2019-05-19T19:56:17.200Z,99.90
2019-05-19T19:58:47.463Z,99.90
2019-05-19T20:01:18.243Z,99.90
2019-05-19T20:03:48.466Z,99.90
2019-05-19T20:06:18.716Z,99.90
2019-05-19T20:08:48.985Z,99.90
2019-05-19T20:11:19.251Z,99.90
2019-05-19T20:13:49.454Z,99.90
2019-05-19T20:16:19.714Z,99.90
2019-05-19T20:18:49.918Z,99.90
2019-05-19T20:21:20.213Z,99.90
2019-05-19T20:23:50.470Z,99.90
2019-05-19T20:26:21.873Z,99.90
2019-05-19T20:28:52.121Z,99.90
2019-05-19T20:31:22.410Z,99.90
2019-05-19T20:33:52.730Z,99.90
2019-05-19T20:36:22.952Z,99.90
2019-05-19T20:38:53.165Z,99.90
2019-05-19T20:41:23.403Z,99.90
2019-05-19T20:43:53.603Z,99.90
2019-05-19T20:46:23.835Z,99.90
2019-05-19T20:48:54.072Z,99.90
2019-05-19T20:51:24.334Z,99.90
2019-05-19T20:53:54.540Z,99.90
2019-05-19T20:56:25.725Z,99.90
2019-05-19T20:58:55.950Z,99.90
2019-05-19T21:01:26.205Z,99.90
2019-05-19T21:03:56.424Z,99.90
2019-05-19T21:06:26.672Z,99.90
2019-05-19T21:08:56.895Z,99.90
2019-05-19T21:11:27.197Z,99.90
2019-05-19T21:13:57.430Z,99.90
2019-05-19T21:16:27.677Z,99.90
2019-05-19T21:18:57.961Z,99.90
2019-05-19T21:21:28.179Z,99.90
2019-05-19T21:23:58.495Z,99.90
2019-05-19T21:26:28.708Z,99.90
2019-05-19T21:28:58.933Z,99.90
2019-05-19T21:31:29.238Z,99.90
2019-05-19T21:33:59.799Z,99.90
2019-05-19T21:36:30.677Z,99.90
2019-05-19T21:39:00.910Z,99.90
2019-05-19T21:41:31.134Z,99.90
2019-05-19T21:44:03.504Z,99.90
2019-05-19T21:46:33.724Z,99.90
2019-05-19T21:49:03.926Z,99.90
2019-05-19T21:51:34.122Z,99.90
2019-05-19T21:54:04.930Z,99.90
2019-05-19T21:56:35.130Z,99.90
2019-05-19T21:59:05.445Z,99.90
2019-05-19T22:01:35.680Z,99.90
2019-05-19T22:04:05.991Z,99.90
2019-05-19T22:06:37.848Z,99.90
2019-05-19T22:09:08.075Z,99.90
2019-05-19T22:11:38.298Z,99.90
2019-05-19T22:14:08.513Z,99.90
2019-05-19T22:16:38.758Z,99.90
2019-05-19T22:19:09.030Z,99.90
2019-05-19T22:21:39.268Z,99.90
2019-05-19T22:24:09.491Z,99.90
2019-05-19T22:26:39.722Z,99.90
2019-05-19T22:29:09.932Z,99.90
2019-05-19T22:31:40.196Z,99.90
2019-05-19T22:34:10.490Z,99.90
2019-05-19T22:36:40.744Z,99.90
2019-05-19T22:39:10.955Z,99.90
2019-05-19T22:41:41.209Z,99.90
2019-05-19T22:44:11.401Z,99.90
2019-05-19T22:46:41.658Z,99.90
2019-05-19T22:49:11.939Z,99.90
2019-05-19T22:51:42.159Z,99.90
2019-05-19T22:54:12.367Z,99.90
2019-05-19T22:56:42.584Z,99.90
2019-05-19T22:59:19.793Z,99.90
2019-05-19T23:01:51.761Z,99.90
2019-05-19T23:04:16.675Z,99.90
2019-05-19T23:06:46.893Z,99.90
2019-05-19T23:09:17.101Z,99.90
2019-05-19T23:11:47.361Z,99.90
2019-05-19T23:14:17.565Z,99.90
2019-05-19T23:16:47.791Z,99.90
2019-05-19T23:19:18.022Z,99.90
2019-05-19T23:21:48.275Z,99.90
2019-05-19T23:24:18.470Z,99.90
2019-05-19T23:26:48.684Z,99.90
2019-05-19T23:29:18.909Z,99.90
2019-05-19T23:31:49.136Z,99.90
2019-05-19T23:34:19.435Z,99.90
2019-05-19T23:36:49.705Z,99.90
2019-05-19T23:39:19.941Z,99.90
2019-05-19T23:41:50.169Z,99.90
2019-05-19T23:44:20.430Z,99.90
2019-05-19T23:46:50.644Z,99.90
2019-05-19T23:49:22.000Z,99.90
2019-05-19T23:51:52.239Z,99.90
2019-05-19T23:54:22.501Z,99.90
2019-05-19T23:56:52.721Z,99.90
2019-05-19T23:59:22.961Z,99.90
